sensor_id;sensor_type;location;lat;lon;timestamp;P1;durP1;ratioP1;P2;durP2;ratioP2
52942;SDS011;38809;53.300;6.614;2023-04-10T00:02:20;23.05;;;17.40;;
52942;SDS011;38809;53.300;6.614;2023-04-10T00:04:45;25.90;;;16.40;;
52942;SDS011;38809;53.300;6.614;2023-04-10T00:07:11;25.23;;;16.73;;
52942;SDS011;38809;53.300;6.614;2023-04-10T00:09:38;24.95;;;17.77;;
52942;SDS011;38809;53.300;6.614;2023-04-10T00:12:04;28.30;;;17.30;;
52942;SDS011;38809;53.300;6.614;2023-04-10T00:14:30;26.65;;;17.52;;
52942;SDS011;38809;53.300;6.614;2023-04-10T00:16:56;25.85;;;18.15;;
52942;SDS011;38809;53.300;6.614;2023-04-10T00:19:21;25.07;;;17.77;;
52942;SDS011;38809;53.300;6.614;2023-04-10T00:21:47;25.20;;;17.77;;
52942;SDS011;38809;53.300;6.614;2023-04-10T00:24:13;26.77;;;18.70;;
52942;SDS011;38809;53.300;6.614;2023-04-10T00:26:39;25.80;;;16.77;;
52942;SDS011;38809;53.300;6.614;2023-04-10T00:29:04;26.08;;;18.65;;
52942;SDS011;38809;53.300;6.614;2023-04-10T00:31:30;27.15;;;18.88;;
52942;SDS011;38809;53.300;6.614;2023-04-10T00:36:22;26.35;;;17.33;;
52942;SDS011;38809;53.300;6.614;2023-04-10T00:38:48;29.15;;;18.83;;
52942;SDS011;38809;53.300;6.614;2023-04-10T00:41:14;25.45;;;18.35;;
52942;SDS011;38809;53.300;6.614;2023-04-10T00:43:40;31.67;;;19.75;;
52942;SDS011;38809;53.300;6.614;2023-04-10T00:46:06;28.48;;;19.08;;
52942;SDS011;38809;53.300;6.614;2023-04-10T00:48:32;28.67;;;20.17;;
52942;SDS011;38809;53.300;6.614;2023-04-10T00:50:59;29.20;;;20.52;;
52942;SDS011;38809;53.300;6.614;2023-04-10T00:53:25;31.65;;;21.75;;
52942;SDS011;38809;53.300;6.614;2023-04-10T00:55:51;33.10;;;21.80;;
52942;SDS011;38809;53.300;6.614;2023-04-10T00:58:17;29.20;;;20.50;;
52942;SDS011;38809;53.300;6.614;2023-04-10T01:00:43;29.30;;;21.35;;
52942;SDS011;38809;53.300;6.614;2023-04-10T01:03:09;30.77;;;21.70;;
52942;SDS011;38809;53.300;6.614;2023-04-10T01:05:47;31.65;;;21.00;;
52942;SDS011;38809;53.300;6.614;2023-04-10T01:08:33;34.75;;;22.38;;
52942;SDS011;38809;53.300;6.614;2023-04-10T01:11:09;30.63;;;21.88;;
52942;SDS011;38809;53.300;6.614;2023-04-10T01:13:46;31.80;;;22.75;;
52942;SDS011;38809;53.300;6.614;2023-04-10T01:21:28;31.23;;;22.08;;
52942;SDS011;38809;53.300;6.614;2023-04-10T01:24:05;31.88;;;22.00;;
52942;SDS011;38809;53.300;6.614;2023-04-10T01:26:55;34.00;;;22.85;;
52942;SDS011;38809;53.300;6.614;2023-04-10T01:29:27;36.03;;;23.58;;
52942;SDS011;38809;53.300;6.614;2023-04-10T01:32:00;31.73;;;23.27;;
52942;SDS011;38809;53.300;6.614;2023-04-10T01:34:33;33.83;;;23.35;;
52942;SDS011;38809;53.300;6.614;2023-04-10T01:37:03;33.33;;;22.63;;
52942;SDS011;38809;53.300;6.614;2023-04-10T01:39:33;34.03;;;23.30;;
52942;SDS011;38809;53.300;6.614;2023-04-10T01:42:03;31.92;;;22.48;;
52942;SDS011;38809;53.300;6.614;2023-04-10T01:44:31;33.70;;;23.30;;
52942;SDS011;38809;53.300;6.614;2023-04-10T01:47:00;32.83;;;22.60;;
52942;SDS011;38809;53.300;6.614;2023-04-10T01:49:28;35.78;;;23.55;;
52942;SDS011;38809;53.300;6.614;2023-04-10T01:51:55;34.38;;;23.55;;
52942;SDS011;38809;53.300;6.614;2023-04-10T01:54:27;35.45;;;24.77;;
52942;SDS011;38809;53.300;6.614;2023-04-10T01:56:56;31.33;;;22.63;;
52942;SDS011;38809;53.300;6.614;2023-04-10T01:59:23;31.63;;;22.77;;
52942;SDS011;38809;53.300;6.614;2023-04-10T02:01:54;33.78;;;23.67;;
52942;SDS011;38809;53.300;6.614;2023-04-10T02:04:23;34.72;;;25.70;;
52942;SDS011;38809;53.300;6.614;2023-04-10T02:09:34;35.85;;;25.40;;
52942;SDS011;38809;53.300;6.614;2023-04-10T02:12:05;33.45;;;23.30;;
52942;SDS011;38809;53.300;6.614;2023-04-10T02:14:40;35.95;;;24.23;;
52942;SDS011;38809;53.300;6.614;2023-04-10T02:17:09;34.13;;;24.60;;
52942;SDS011;38809;53.300;6.614;2023-04-10T02:19:45;33.38;;;23.35;;
52942;SDS011;38809;53.300;6.614;2023-04-10T02:22:12;35.53;;;25.27;;
52942;SDS011;38809;53.300;6.614;2023-04-10T02:24:40;34.15;;;24.38;;
52942;SDS011;38809;53.300;6.614;2023-04-10T02:27:05;37.17;;;24.88;;
52942;SDS011;38809;53.300;6.614;2023-04-10T02:29:31;35.00;;;25.07;;
52942;SDS011;38809;53.300;6.614;2023-04-10T02:31:57;33.07;;;23.00;;
52942;SDS011;38809;53.300;6.614;2023-04-10T02:34:22;33.47;;;23.93;;
52942;SDS011;38809;53.300;6.614;2023-04-10T02:36:48;32.87;;;24.10;;
52942;SDS011;38809;53.300;6.614;2023-04-10T02:39:14;33.73;;;24.30;;
52942;SDS011;38809;53.300;6.614;2023-04-10T02:41:39;34.60;;;23.33;;
52942;SDS011;38809;53.300;6.614;2023-04-10T02:44:05;33.70;;;23.23;;
52942;SDS011;38809;53.300;6.614;2023-04-10T02:46:31;33.58;;;24.20;;
52942;SDS011;38809;53.300;6.614;2023-04-10T02:48:56;32.43;;;22.33;;
52942;SDS011;38809;53.300;6.614;2023-04-10T02:51:23;31.13;;;23.35;;
52942;SDS011;38809;53.300;6.614;2023-04-10T02:53:49;34.87;;;23.70;;
52942;SDS011;38809;53.300;6.614;2023-04-10T02:56:16;35.40;;;24.67;;
52942;SDS011;38809;53.300;6.614;2023-04-10T02:58:43;33.83;;;24.02;;
52942;SDS011;38809;53.300;6.614;2023-04-10T03:01:10;34.47;;;23.10;;
52942;SDS011;38809;53.300;6.614;2023-04-10T03:03:37;35.40;;;24.85;;
52942;SDS011;38809;53.300;6.614;2023-04-10T03:06:03;32.80;;;23.73;;
52942;SDS011;38809;53.300;6.614;2023-04-10T03:08:29;32.13;;;23.38;;
52942;SDS011;38809;53.300;6.614;2023-04-10T03:10:54;33.13;;;24.47;;
52942;SDS011;38809;53.300;6.614;2023-04-10T03:13:20;33.28;;;22.98;;
52942;SDS011;38809;53.300;6.614;2023-04-10T03:15:47;35.85;;;24.17;;
52942;SDS011;38809;53.300;6.614;2023-04-10T03:18:13;33.92;;;22.95;;
52942;SDS011;38809;53.300;6.614;2023-04-10T03:20:38;34.50;;;23.70;;
52942;SDS011;38809;53.300;6.614;2023-04-10T03:23:04;30.97;;;22.10;;
52942;SDS011;38809;53.300;6.614;2023-04-10T03:27:59;33.53;;;21.98;;
52942;SDS011;38809;53.300;6.614;2023-04-10T03:30:25;33.13;;;22.75;;
52942;SDS011;38809;53.300;6.614;2023-04-10T03:32:51;34.42;;;23.00;;
52942;SDS011;38809;53.300;6.614;2023-04-10T03:35:17;30.80;;;23.27;;
52942;SDS011;38809;53.300;6.614;2023-04-10T03:37:42;29.88;;;21.13;;
52942;SDS011;38809;53.300;6.614;2023-04-10T03:40:09;28.92;;;22.00;;
52942;SDS011;38809;53.300;6.614;2023-04-10T03:42:35;31.05;;;22.42;;
52942;SDS011;38809;53.300;6.614;2023-04-10T03:45:01;33.80;;;21.80;;
52942;SDS011;38809;53.300;6.614;2023-04-10T03:47:29;32.40;;;22.35;;
52942;SDS011;38809;53.300;6.614;2023-04-10T03:49:55;30.45;;;20.50;;
52942;SDS011;38809;53.300;6.614;2023-04-10T03:52:21;31.33;;;22.15;;
52942;SDS011;38809;53.300;6.614;2023-04-10T03:54:47;29.23;;;21.03;;
52942;SDS011;38809;53.300;6.614;2023-04-10T03:57:12;30.03;;;22.03;;
52942;SDS011;38809;53.300;6.614;2023-04-10T03:59:38;29.30;;;20.37;;
52942;SDS011;38809;53.300;6.614;2023-04-10T04:02:05;30.38;;;21.20;;
52942;SDS011;38809;53.300;6.614;2023-04-10T04:04:31;29.50;;;20.95;;
52942;SDS011;38809;53.300;6.614;2023-04-10T04:06:56;31.30;;;21.13;;
52942;SDS011;38809;53.300;6.614;2023-04-10T04:09:22;28.55;;;20.40;;
52942;SDS011;38809;53.300;6.614;2023-04-10T04:11:48;31.93;;;21.57;;
52942;SDS011;38809;53.300;6.614;2023-04-10T04:14:14;29.80;;;20.30;;
52942;SDS011;38809;53.300;6.614;2023-04-10T04:16:39;32.00;;;20.40;;
52942;SDS011;38809;53.300;6.614;2023-04-10T04:19:05;30.77;;;19.90;;
52942;SDS011;38809;53.300;6.614;2023-04-10T05:02:49;28.45;;;19.83;;
52942;SDS011;38809;53.300;6.614;2023-04-10T05:14:57;32.95;;;23.23;;
52942;SDS011;38809;53.300;6.614;2023-04-10T05:46:31;34.72;;;22.65;;
52942;SDS011;38809;53.300;6.614;2023-04-10T05:56:14;36.22;;;25.55;;
52942;SDS011;38809;53.300;6.614;2023-04-10T05:58:40;38.97;;;26.80;;
52942;SDS011;38809;53.300;6.614;2023-04-10T06:01:05;42.67;;;30.03;;
52942;SDS011;38809;53.300;6.614;2023-04-10T06:03:31;44.05;;;30.50;;
52942;SDS011;38809;53.300;6.614;2023-04-10T06:05:57;44.83;;;30.03;;
52942;SDS011;38809;53.300;6.614;2023-04-10T06:20:33;38.47;;;26.08;;
52942;SDS011;38809;53.300;6.614;2023-04-10T06:22:58;43.58;;;29.45;;
52942;SDS011;38809;53.300;6.614;2023-04-10T06:30:16;38.65;;;25.95;;
52942;SDS011;38809;53.300;6.614;2023-04-10T06:40:00;36.47;;;25.33;;
52942;SDS011;38809;53.300;6.614;2023-04-10T06:42:27;39.80;;;27.33;;
52942;SDS011;38809;53.300;6.614;2023-04-10T06:47:19;40.22;;;27.60;;
52942;SDS011;38809;53.300;6.614;2023-04-10T06:49:45;41.67;;;29.17;;
52942;SDS011;38809;53.300;6.614;2023-04-10T06:59:27;38.05;;;25.85;;
52942;SDS011;38809;53.300;6.614;2023-04-10T07:01:53;39.80;;;28.33;;
52942;SDS011;38809;53.300;6.614;2023-04-10T07:09:10;36.60;;;24.85;;
52942;SDS011;38809;53.300;6.614;2023-04-10T07:11:36;38.70;;;27.50;;
52942;SDS011;38809;53.300;6.614;2023-04-10T07:14:01;37.10;;;26.03;;
52942;SDS011;38809;53.300;6.614;2023-04-10T07:16:27;37.20;;;26.17;;
52942;SDS011;38809;53.300;6.614;2023-04-10T07:18:53;39.25;;;26.40;;
52942;SDS011;38809;53.300;6.614;2023-04-10T07:21:19;37.70;;;26.42;;
52942;SDS011;38809;53.300;6.614;2023-04-10T07:23:45;42.40;;;27.15;;
52942;SDS011;38809;53.300;6.614;2023-04-10T07:26:11;39.92;;;27.75;;
52942;SDS011;38809;53.300;6.614;2023-04-10T07:33:28;39.22;;;26.42;;
52942;SDS011;38809;53.300;6.614;2023-04-10T07:35:54;36.80;;;25.13;;
52942;SDS011;38809;53.300;6.614;2023-04-10T07:38:20;38.95;;;26.00;;
52942;SDS011;38809;53.300;6.614;2023-04-10T07:40:45;37.87;;;26.03;;
52942;SDS011;38809;53.300;6.614;2023-04-10T07:43:11;37.88;;;25.92;;
52942;SDS011;38809;53.300;6.614;2023-04-10T07:45:37;38.17;;;24.93;;
52942;SDS011;38809;53.300;6.614;2023-04-10T07:48:03;36.90;;;25.10;;
52942;SDS011;38809;53.300;6.614;2023-04-10T07:50:30;37.28;;;25.48;;
52942;SDS011;38809;53.300;6.614;2023-04-10T07:55:21;37.13;;;25.17;;
52942;SDS011;38809;53.300;6.614;2023-04-10T07:57:47;36.22;;;26.02;;
52942;SDS011;38809;53.300;6.614;2023-04-10T08:00:13;36.63;;;24.73;;
52942;SDS011;38809;53.300;6.614;2023-04-10T08:02:39;37.53;;;25.95;;
52942;SDS011;38809;53.300;6.614;2023-04-10T08:05:05;36.40;;;24.35;;
52942;SDS011;38809;53.300;6.614;2023-04-10T08:07:31;36.78;;;24.40;;
52942;SDS011;38809;53.300;6.614;2023-04-10T08:09:57;37.88;;;25.30;;
52942;SDS011;38809;53.300;6.614;2023-04-10T08:12:22;35.57;;;23.83;;
52942;SDS011;38809;53.300;6.614;2023-04-10T08:14:48;33.60;;;22.77;;
52942;SDS011;38809;53.300;6.614;2023-04-10T08:17:15;37.22;;;23.98;;
52942;SDS011;38809;53.300;6.614;2023-04-10T08:19:41;33.40;;;21.85;;
52942;SDS011;38809;53.300;6.614;2023-04-10T08:22:06;33.45;;;22.10;;
52942;SDS011;38809;53.300;6.614;2023-04-10T08:24:32;30.98;;;21.73;;
52942;SDS011;38809;53.300;6.614;2023-04-10T08:26:58;32.00;;;21.90;;
52942;SDS011;38809;53.300;6.614;2023-04-10T08:29:25;30.15;;;19.83;;
52942;SDS011;38809;53.300;6.614;2023-04-10T08:31:50;30.70;;;20.90;;
52942;SDS011;38809;53.300;6.614;2023-04-10T08:34:16;29.60;;;20.23;;
52942;SDS011;38809;53.300;6.614;2023-04-10T08:36:42;30.90;;;19.93;;
52942;SDS011;38809;53.300;6.614;2023-04-10T08:39:07;26.27;;;18.98;;
52942;SDS011;38809;53.300;6.614;2023-04-10T08:41:33;28.37;;;19.43;;
52942;SDS011;38809;53.300;6.614;2023-04-10T08:43:59;27.13;;;18.60;;
52942;SDS011;38809;53.300;6.614;2023-04-10T08:46:24;27.08;;;18.33;;
52942;SDS011;38809;53.300;6.614;2023-04-10T08:51:27;28.45;;;17.48;;
52942;SDS011;38809;53.300;6.614;2023-04-10T08:54:03;25.88;;;17.05;;
52942;SDS011;38809;53.300;6.614;2023-04-10T08:56:31;27.02;;;17.70;;
52942;SDS011;38809;53.300;6.614;2023-04-10T08:59:00;25.92;;;17.10;;
52942;SDS011;38809;53.300;6.614;2023-04-10T09:01:27;26.20;;;18.00;;
52942;SDS011;38809;53.300;6.614;2023-04-10T09:03:53;26.92;;;17.67;;
52942;SDS011;38809;53.300;6.614;2023-04-10T09:06:19;24.75;;;17.13;;
52942;SDS011;38809;53.300;6.614;2023-04-10T09:08:45;22.48;;;16.05;;
52942;SDS011;38809;53.300;6.614;2023-04-10T09:11:10;22.53;;;15.17;;
52942;SDS011;38809;53.300;6.614;2023-04-10T09:13:40;25.13;;;16.23;;
52942;SDS011;38809;53.300;6.614;2023-04-10T09:16:10;21.30;;;14.55;;
52942;SDS011;38809;53.300;6.614;2023-04-10T09:18:41;22.77;;;14.95;;
52942;SDS011;38809;53.300;6.614;2023-04-10T09:21:13;22.08;;;15.30;;
52942;SDS011;38809;53.300;6.614;2023-04-10T09:23:43;22.88;;;15.52;;
52942;SDS011;38809;53.300;6.614;2023-04-10T09:26:29;20.58;;;14.05;;
52942;SDS011;38809;53.300;6.614;2023-04-10T09:28:59;21.27;;;14.90;;
52942;SDS011;38809;53.300;6.614;2023-04-10T09:31:32;20.73;;;14.27;;
52942;SDS011;38809;53.300;6.614;2023-04-10T09:34:06;21.45;;;15.00;;
52942;SDS011;38809;53.300;6.614;2023-04-10T09:36:42;20.13;;;13.90;;
52942;SDS011;38809;53.300;6.614;2023-04-10T09:39:09;19.33;;;13.45;;
52942;SDS011;38809;53.300;6.614;2023-04-10T09:41:51;20.77;;;13.55;;
52942;SDS011;38809;53.300;6.614;2023-04-10T09:44:31;19.17;;;13.68;;
52942;SDS011;38809;53.300;6.614;2023-04-10T09:47:14;18.85;;;13.13;;
52942;SDS011;38809;53.300;6.614;2023-04-10T09:52:26;19.25;;;13.23;;
52942;SDS011;38809;53.300;6.614;2023-04-10T09:57:23;18.95;;;13.05;;
52942;SDS011;38809;53.300;6.614;2023-04-10T09:59:53;17.05;;;12.52;;
52942;SDS011;38809;53.300;6.614;2023-04-10T10:02:23;19.73;;;13.02;;
52942;SDS011;38809;53.300;6.614;2023-04-10T10:04:50;17.45;;;12.00;;
52942;SDS011;38809;53.300;6.614;2023-04-10T10:07:17;17.77;;;11.80;;
52942;SDS011;38809;53.300;6.614;2023-04-10T10:09:45;17.35;;;12.30;;
52942;SDS011;38809;53.300;6.614;2023-04-10T10:12:12;16.83;;;11.15;;
52942;SDS011;38809;53.300;6.614;2023-04-10T10:14:53;16.55;;;11.82;;
52942;SDS011;38809;53.300;6.614;2023-04-10T10:17:26;16.67;;;11.80;;
52942;SDS011;38809;53.300;6.614;2023-04-10T10:19:58;18.27;;;11.73;;
52942;SDS011;38809;53.300;6.614;2023-04-10T10:22:31;16.00;;;11.25;;
52942;SDS011;38809;53.300;6.614;2023-04-10T10:24:57;15.45;;;11.18;;
52942;SDS011;38809;53.300;6.614;2023-04-10T10:27:25;16.50;;;11.27;;
52942;SDS011;38809;53.300;6.614;2023-04-10T10:29:53;16.45;;;11.65;;
52942;SDS011;38809;53.300;6.614;2023-04-10T10:32:20;16.88;;;11.57;;
52942;SDS011;38809;53.300;6.614;2023-04-10T10:34:46;14.45;;;11.05;;
52942;SDS011;38809;53.300;6.614;2023-04-10T10:37:17;16.25;;;11.30;;
52942;SDS011;38809;53.300;6.614;2023-04-10T10:39:56;16.85;;;12.02;;
52942;SDS011;38809;53.300;6.614;2023-04-10T10:45:36;15.35;;;10.27;;
52942;SDS011;38809;53.300;6.614;2023-04-10T10:48:12;14.95;;;10.48;;
52942;SDS011;38809;53.300;6.614;2023-04-10T10:53:33;15.10;;;10.98;;
52942;SDS011;38809;53.300;6.614;2023-04-10T10:58:47;14.15;;;10.10;;
52942;SDS011;38809;53.300;6.614;2023-04-10T11:01:21;14.13;;;9.93;;
52942;SDS011;38809;53.300;6.614;2023-04-10T11:03:48;12.98;;;9.25;;
52942;SDS011;38809;53.300;6.614;2023-04-10T11:06:18;13.75;;;9.55;;
52942;SDS011;38809;53.300;6.614;2023-04-10T11:08:49;13.10;;;8.82;;
52942;SDS011;38809;53.300;6.614;2023-04-10T11:11:22;12.27;;;8.75;;
52942;SDS011;38809;53.300;6.614;2023-04-10T11:16:14;12.20;;;7.45;;
52942;SDS011;38809;53.300;6.614;2023-04-10T11:26:43;10.07;;;7.00;;
52942;SDS011;38809;53.300;6.614;2023-04-10T11:31:45;10.20;;;6.80;;
52942;SDS011;38809;53.300;6.614;2023-04-10T11:34:20;8.38;;;5.97;;
52942;SDS011;38809;53.300;6.614;2023-04-10T11:36:46;8.23;;;5.93;;
52942;SDS011;38809;53.300;6.614;2023-04-10T11:39:12;9.40;;;6.15;;
52942;SDS011;38809;53.300;6.614;2023-04-10T11:44:17;8.95;;;6.32;;
52942;SDS011;38809;53.300;6.614;2023-04-10T11:46:51;7.95;;;5.15;;
52942;SDS011;38809;53.300;6.614;2023-04-10T11:49:21;7.22;;;5.28;;
52942;SDS011;38809;53.300;6.614;2023-04-10T11:51:48;6.82;;;5.10;;
52942;SDS011;38809;53.300;6.614;2023-04-10T11:54:18;8.35;;;5.75;;
52942;SDS011;38809;53.300;6.614;2023-04-10T11:57:02;7.93;;;5.78;;
52942;SDS011;38809;53.300;6.614;2023-04-10T11:59:30;8.18;;;5.30;;
52942;SDS011;38809;53.300;6.614;2023-04-10T12:02:10;7.20;;;5.13;;
52942;SDS011;38809;53.300;6.614;2023-04-10T12:04:40;7.45;;;5.53;;
52942;SDS011;38809;53.300;6.614;2023-04-10T12:07:09;7.32;;;5.18;;
52942;SDS011;38809;53.300;6.614;2023-04-10T12:09:35;7.28;;;4.97;;
52942;SDS011;38809;53.300;6.614;2023-04-10T12:12:02;6.32;;;4.72;;
52942;SDS011;38809;53.300;6.614;2023-04-10T12:14:30;6.60;;;4.85;;
52942;SDS011;38809;53.300;6.614;2023-04-10T12:16:57;6.78;;;4.38;;
52942;SDS011;38809;53.300;6.614;2023-04-10T12:19:23;6.53;;;4.50;;
52942;SDS011;38809;53.300;6.614;2023-04-10T12:29:51;4.80;;;3.58;;
52942;SDS011;38809;53.300;6.614;2023-04-10T12:32:18;4.75;;;3.63;;
52942;SDS011;38809;53.300;6.614;2023-04-10T12:34:51;5.95;;;3.60;;
52942;SDS011;38809;53.300;6.614;2023-04-10T12:37:21;5.85;;;3.20;;
52942;SDS011;38809;53.300;6.614;2023-04-10T12:39:47;4.20;;;3.03;;
52942;SDS011;38809;53.300;6.614;2023-04-10T12:42:21;5.60;;;3.25;;
52942;SDS011;38809;53.300;6.614;2023-04-10T12:44:54;5.10;;;2.63;;
52942;SDS011;38809;53.300;6.614;2023-04-10T12:47:21;4.43;;;3.17;;
52942;SDS011;38809;53.300;6.614;2023-04-10T12:52:32;4.43;;;2.92;;
52942;SDS011;38809;53.300;6.614;2023-04-10T12:55:08;6.10;;;3.15;;
52942;SDS011;38809;53.300;6.614;2023-04-10T12:57:48;5.25;;;3.13;;
52942;SDS011;38809;53.300;6.614;2023-04-10T13:00:16;4.80;;;3.10;;
52942;SDS011;38809;53.300;6.614;2023-04-10T13:02:43;4.90;;;2.88;;
52942;SDS011;38809;53.300;6.614;2023-04-10T13:05:10;4.03;;;2.80;;
52942;SDS011;38809;53.300;6.614;2023-04-10T13:07:36;4.53;;;2.90;;
52942;SDS011;38809;53.300;6.614;2023-04-10T13:12:29;3.97;;;2.60;;
52942;SDS011;38809;53.300;6.614;2023-04-10T13:14:55;4.72;;;2.60;;
52942;SDS011;38809;53.300;6.614;2023-04-10T13:17:23;4.25;;;3.00;;
52942;SDS011;38809;53.300;6.614;2023-04-10T13:19:50;6.82;;;3.17;;
52942;SDS011;38809;53.300;6.614;2023-04-10T13:22:16;4.90;;;3.08;;
52942;SDS011;38809;53.300;6.614;2023-04-10T13:24:42;4.50;;;2.85;;
52942;SDS011;38809;53.300;6.614;2023-04-10T13:27:08;4.90;;;3.10;;
52942;SDS011;38809;53.300;6.614;2023-04-10T13:29:34;5.35;;;3.25;;
52942;SDS011;38809;53.300;6.614;2023-04-10T13:32:01;5.03;;;3.28;;
52942;SDS011;38809;53.300;6.614;2023-04-10T13:34:29;4.70;;;3.10;;
52942;SDS011;38809;53.300;6.614;2023-04-10T13:36:58;4.82;;;3.10;;
52942;SDS011;38809;53.300;6.614;2023-04-10T13:39:27;5.63;;;3.47;;
52942;SDS011;38809;53.300;6.614;2023-04-10T13:41:55;4.75;;;2.70;;
52942;SDS011;38809;53.300;6.614;2023-04-10T13:44:21;6.40;;;3.63;;
52942;SDS011;38809;53.300;6.614;2023-04-10T13:46:47;5.07;;;3.30;;
52942;SDS011;38809;53.300;6.614;2023-04-10T13:49:13;4.72;;;3.50;;
52942;SDS011;38809;53.300;6.614;2023-04-10T13:51:46;5.15;;;3.15;;
52942;SDS011;38809;53.300;6.614;2023-04-10T13:54:12;6.00;;;3.80;;
52942;SDS011;38809;53.300;6.614;2023-04-10T13:56:38;7.15;;;3.70;;
52942;SDS011;38809;53.300;6.614;2023-04-10T13:59:05;5.07;;;3.67;;
52942;SDS011;38809;53.300;6.614;2023-04-10T14:01:30;6.53;;;4.00;;
52942;SDS011;38809;53.300;6.614;2023-04-10T14:03:56;7.82;;;3.97;;
52942;SDS011;38809;53.300;6.614;2023-04-10T14:06:22;5.68;;;4.13;;
52942;SDS011;38809;53.300;6.614;2023-04-10T14:08:47;5.30;;;3.33;;
52942;SDS011;38809;53.300;6.614;2023-04-10T14:11:13;6.75;;;3.63;;
52942;SDS011;38809;53.300;6.614;2023-04-10T14:13:39;5.45;;;3.78;;
52942;SDS011;38809;53.300;6.614;2023-04-10T14:16:05;4.75;;;3.33;;
52942;SDS011;38809;53.300;6.614;2023-04-10T14:18:31;5.03;;;3.30;;
52942;SDS011;38809;53.300;6.614;2023-04-10T14:20:57;5.38;;;3.58;;
52942;SDS011;38809;53.300;6.614;2023-04-10T14:23:23;5.38;;;3.17;;
52942;SDS011;38809;53.300;6.614;2023-04-10T14:25:49;5.95;;;3.20;;
52942;SDS011;38809;53.300;6.614;2023-04-10T14:28:15;4.90;;;3.40;;
52942;SDS011;38809;53.300;6.614;2023-04-10T14:30:48;5.90;;;3.55;;
52942;SDS011;38809;53.300;6.614;2023-04-10T14:33:18;5.18;;;3.67;;
52942;SDS011;38809;53.300;6.614;2023-04-10T14:35:44;4.07;;;3.10;;
52942;SDS011;38809;53.300;6.614;2023-04-10T14:38:11;8.30;;;3.95;;
52942;SDS011;38809;53.300;6.614;2023-04-10T14:40:37;5.25;;;3.45;;
52942;SDS011;38809;53.300;6.614;2023-04-10T14:43:04;5.97;;;3.75;;
52942;SDS011;38809;53.300;6.614;2023-04-10T14:45:31;5.47;;;3.17;;
52942;SDS011;38809;53.300;6.614;2023-04-10T14:47:57;5.55;;;3.85;;
52942;SDS011;38809;53.300;6.614;2023-04-10T14:50:22;5.22;;;3.42;;
52942;SDS011;38809;53.300;6.614;2023-04-10T14:52:49;4.93;;;3.15;;
52942;SDS011;38809;53.300;6.614;2023-04-10T14:55:16;6.65;;;3.33;;
52942;SDS011;38809;53.300;6.614;2023-04-10T14:57:41;4.28;;;2.92;;
52942;SDS011;38809;53.300;6.614;2023-04-10T15:00:07;3.85;;;3.00;;
52942;SDS011;38809;53.300;6.614;2023-04-10T15:04:59;4.78;;;2.90;;
52942;SDS011;38809;53.300;6.614;2023-04-10T15:07:25;4.45;;;3.15;;
52942;SDS011;38809;53.300;6.614;2023-04-10T15:09:55;4.50;;;2.83;;
52942;SDS011;38809;53.300;6.614;2023-04-10T15:12:23;7.15;;;3.03;;
52942;SDS011;38809;53.300;6.614;2023-04-10T15:14:49;6.63;;;3.17;;
52942;SDS011;38809;53.300;6.614;2023-04-10T15:19:41;4.55;;;3.00;;
52942;SDS011;38809;53.300;6.614;2023-04-10T15:22:07;4.85;;;2.75;;
52942;SDS011;38809;53.300;6.614;2023-04-10T15:24:33;4.95;;;3.38;;
52942;SDS011;38809;53.300;6.614;2023-04-10T15:26:58;5.70;;;3.10;;
52942;SDS011;38809;53.300;6.614;2023-04-10T15:29:25;5.28;;;3.40;;
52942;SDS011;38809;53.300;6.614;2023-04-10T15:34:17;5.07;;;3.47;;
52942;SDS011;38809;53.300;6.614;2023-04-10T15:36:43;5.38;;;3.78;;
52942;SDS011;38809;53.300;6.614;2023-04-10T15:39:09;5.00;;;3.53;;
52942;SDS011;38809;53.300;6.614;2023-04-10T15:41:34;4.90;;;3.55;;
52942;SDS011;38809;53.300;6.614;2023-04-10T15:44:00;5.50;;;3.53;;
52942;SDS011;38809;53.300;6.614;2023-04-10T15:46:26;5.45;;;3.92;;
52942;SDS011;38809;53.300;6.614;2023-04-10T15:48:53;5.57;;;3.75;;
52942;SDS011;38809;53.300;6.614;2023-04-10T15:51:18;5.28;;;3.70;;
52942;SDS011;38809;53.300;6.614;2023-04-10T15:53:44;5.18;;;3.85;;
52942;SDS011;38809;53.300;6.614;2023-04-10T15:56:10;7.82;;;4.30;;
52942;SDS011;38809;53.300;6.614;2023-04-10T15:58:35;5.10;;;3.67;;
52942;SDS011;38809;53.300;6.614;2023-04-10T16:01:01;4.68;;;2.83;;
52942;SDS011;38809;53.300;6.614;2023-04-10T16:03:27;5.15;;;3.40;;
52942;SDS011;38809;53.300;6.614;2023-04-10T16:08:19;4.63;;;3.33;;
52942;SDS011;38809;53.300;6.614;2023-04-10T16:10:45;5.03;;;3.33;;
52942;SDS011;38809;53.300;6.614;2023-04-10T16:13:11;5.40;;;3.30;;
52942;SDS011;38809;53.300;6.614;2023-04-10T16:15:37;4.43;;;3.13;;
52942;SDS011;38809;53.300;6.614;2023-04-10T16:18:03;7.28;;;3.50;;
52942;SDS011;38809;53.300;6.614;2023-04-10T16:20:30;4.40;;;3.15;;
52942;SDS011;38809;53.300;6.614;2023-04-10T16:22:56;4.22;;;3.17;;
52942;SDS011;38809;53.300;6.614;2023-04-10T16:25:23;4.53;;;3.00;;
52942;SDS011;38809;53.300;6.614;2023-04-10T16:27:51;4.45;;;3.22;;
52942;SDS011;38809;53.300;6.614;2023-04-10T16:30:17;4.40;;;3.10;;
52942;SDS011;38809;53.300;6.614;2023-04-10T16:32:42;4.57;;;3.42;;
52942;SDS011;38809;53.300;6.614;2023-04-10T16:35:08;4.38;;;3.10;;
52942;SDS011;38809;53.300;6.614;2023-04-10T16:37:35;4.22;;;2.92;;
52942;SDS011;38809;53.300;6.614;2023-04-10T16:40:01;5.40;;;3.50;;
52942;SDS011;38809;53.300;6.614;2023-04-10T16:42:28;5.95;;;3.40;;
52942;SDS011;38809;53.300;6.614;2023-04-10T16:44:54;5.15;;;3.63;;
52942;SDS011;38809;53.300;6.614;2023-04-10T16:47:20;6.32;;;3.75;;
52942;SDS011;38809;53.300;6.614;2023-04-10T16:49:45;7.05;;;4.10;;
52942;SDS011;38809;53.300;6.614;2023-04-10T16:52:11;5.40;;;3.97;;
52942;SDS011;38809;53.300;6.614;2023-04-10T16:54:38;6.45;;;4.15;;
52942;SDS011;38809;53.300;6.614;2023-04-10T16:57:03;8.30;;;3.95;;
52942;SDS011;38809;53.300;6.614;2023-04-10T16:59:29;4.72;;;3.38;;
52942;SDS011;38809;53.300;6.614;2023-04-10T17:04:21;8.15;;;4.10;;
52942;SDS011;38809;53.300;6.614;2023-04-10T17:06:47;6.65;;;4.22;;
52942;SDS011;38809;53.300;6.614;2023-04-10T17:09:13;7.88;;;4.60;;
52942;SDS011;38809;53.300;6.614;2023-04-10T17:11:38;5.67;;;4.20;;
52942;SDS011;38809;53.300;6.614;2023-04-10T17:14:04;5.65;;;3.97;;
52942;SDS011;38809;53.300;6.614;2023-04-10T17:16:31;6.72;;;4.30;;
52942;SDS011;38809;53.300;6.614;2023-04-10T17:18:57;6.60;;;4.63;;
52942;SDS011;38809;53.300;6.614;2023-04-10T17:21:23;5.65;;;4.35;;
52942;SDS011;38809;53.300;6.614;2023-04-10T17:23:48;7.03;;;4.50;;
52942;SDS011;38809;53.300;6.614;2023-04-10T17:26:15;6.00;;;4.35;;
52942;SDS011;38809;53.300;6.614;2023-04-10T17:31:11;7.00;;;4.75;;
52942;SDS011;38809;53.300;6.614;2023-04-10T17:33:37;6.60;;;4.78;;
52942;SDS011;38809;53.300;6.614;2023-04-10T17:36:05;7.30;;;4.82;;
52942;SDS011;38809;53.300;6.614;2023-04-10T17:38:33;5.90;;;4.32;;
52942;SDS011;38809;53.300;6.614;2023-04-10T17:41:01;7.55;;;5.13;;
52942;SDS011;38809;53.300;6.614;2023-04-10T17:43:27;6.95;;;4.75;;
52942;SDS011;38809;53.300;6.614;2023-04-10T17:45:53;7.38;;;4.47;;
52942;SDS011;38809;53.300;6.614;2023-04-10T17:48:18;5.70;;;3.90;;
52942;SDS011;38809;53.300;6.614;2023-04-10T17:50:44;6.80;;;4.45;;
52942;SDS011;38809;53.300;6.614;2023-04-10T17:53:10;5.50;;;4.50;;
52942;SDS011;38809;53.300;6.614;2023-04-10T17:55:39;6.25;;;4.50;;
52942;SDS011;38809;53.300;6.614;2023-04-10T17:58:04;6.88;;;4.63;;
52942;SDS011;38809;53.300;6.614;2023-04-10T18:00:31;6.20;;;4.32;;
52942;SDS011;38809;53.300;6.614;2023-04-10T18:02:57;6.03;;;4.03;;